logo
Rechercher aéroport 
image banner adimage banner adimage banner ad
image banner ad

NZYP - Waipukurau

Situé à Waipukurau, New Zealand

ICAO - NZYP, IATA -

Données fournies par Airmate  

Information générale

Coordonnées: S39°59'48" E176°32'13"
Élévation : 430 feet MSL.
Variation magnétique : +22° East
Voir autres Aéroports à Hawke's Bay Region

Données opérationnelles

Special qualification required
Heure actuelle UTC:
Heure actuelle locale:
Météo à : - ( 0 km )
METAR: LWSK 141720Z 32003KT 260V010 CAVOK 35/21 Q1009 NOSIG
Voir NOTAMs / SUP AIP / TFR affectant cet aéroport [VIEW]
Fréquences de communication: [VIEW]

Pistes:

Identifiant RWYQFULongueur (ft)Largeur (ft)SurfaceLDA (ft)
0245°346175GRASS3461
20225°346175GRASS2854

Coordonnées de l'aéroport

Adresse: Waipukurau New Zealand

Vue satellite de NZYP